34NH weather

Stone Song Heliport
Milford, New Hampshire, United States

Public forecast

Using degrees Fahrenheit for public forecast. Weather courtesy of forecast.io.

METAR (pilot weather report)

Closest report is Boire Field, 6.7 nm (12.5 km) ESE. Retrieved 2019/07/21 19:56 UTC (25 minutes ago):

KASH 211956Z COR 27009G14KT 10SM SCT060 34/22 A2970 RMK AO2 SLP059 T03390217

TAF (pilot weather forecast)

Closest forecast is Manchester-Boston Regional Airport, 12.2 nm (22.6 km) NE. Retrieved 2019/07/21 18:39 UTC (2 hours ago):

TAF KMHT 211737Z 2118/2218 27011G17KT P6SM SCT050 SCT250 FM220000 32005KT P6SM FEW250